Time;durP1;ratioP1;P1;durP2;ratioP2;P2;SDS_P1;SDS_P2;PMS_P1;PMS_P2;Temp;Humidity;BMP_temperature;BMP_pressure;BME280_temperature;BME280_humidity;BME280_pressure;Samples;Min_cycle;Max_cycle;Signal;HPM_P1;HPM_P2
2022/12/25 00:00:12;;;;;;;568.87;535.30;;;7.90;99.90;;;;;;5032784;28;20385;-60
2022/12/25 00:02:38;;;;;;;556.67;524.17;;;7.90;99.90;;;;;;5033381;28;20378;-60
2022/12/25 00:05:04;;;;;;;558.10;525.83;;;7.90;99.90;;;;;;5034861;28;20448;-60
2022/12/25 00:07:30;;;;;;;571.95;538.95;;;7.90;99.90;;;;;;5033969;28;20405;-60
2022/12/25 00:09:55;;;;;;;573.80;540.67;;;7.90;99.90;;;;;;5051326;28;20436;-60
2022/12/25 00:12:21;;;;;;;567.80;534.67;;;7.80;99.90;;;;;;5034026;28;20405;-60
2022/12/25 00:14:47;;;;;;;566.20;533.33;;;7.80;99.90;;;;;;5033580;28;20400;-60
2022/12/25 00:17:13;;;;;;;556.80;524.37;;;7.80;99.90;;;;;;5034257;28;20405;-60
2022/12/25 00:19:38;;;;;;;559.57;526.67;;;7.80;99.90;;;;;;5034741;28;20457;-60
2022/12/25 00:22:04;;;;;;;557.83;525.57;;;7.70;99.90;;;;;;5034500;28;20433;-59
2022/12/25 00:24:29;;;;;;;566.00;533.67;;;7.70;99.90;;;;;;5034054;28;20740;-58
2022/12/25 00:26:55;;;;;;;548.77;516.87;;;7.70;99.90;;;;;;5032291;28;20444;-59
2022/12/25 00:29:20;;;;;;;577.90;544.43;;;7.70;99.90;;;;;;5033622;28;20411;-59
2022/12/25 00:31:46;;;;;;;561.27;528.87;;;7.60;99.90;;;;;;5031825;28;20468;-58
2022/12/25 00:34:12;;;;;;;571.30;537.90;;;7.60;99.90;;;;;;5031366;28;20712;-59
2022/12/25 00:36:37;;;;;;;570.42;536.95;;;7.50;99.90;;;;;;5031778;28;20455;-59
2022/12/25 00:39:03;;;;;;;559.77;527.63;;;7.40;99.90;;;;;;5032657;28;20443;-58
2022/12/25 00:44:13;;;;;;;555.67;524.38;;;7.20;99.90;;;;;;5049950;28;20685;-59
2022/12/25 00:46:54;;;;;;;568.40;535.28;;;7.10;99.90;;;;;;5033998;28;20386;-59
2022/12/25 00:49:22;;;;;;;554.33;522.47;;;7.10;99.90;;;;;;5034899;28;20409;-59
2022/12/25 00:51:48;;;;;;;564.73;531.67;;;7.20;99.90;;;;;;5034518;28;20501;-59
2022/12/25 00:54:14;;;;;;;566.72;534.28;;;7.10;99.90;;;;;;5035207;28;20568;-59
2022/12/25 00:56:39;;;;;;;560.97;528.30;;;7.10;99.90;;;;;;5034007;28;20502;-59
2022/12/25 00:59:05;;;;;;;565.13;532.47;;;7.10;99.90;;;;;;5033832;28;20439;-59
2022/12/25 01:01:31;;;;;;;548.83;517.00;;;7.20;99.90;;;;;;5034486;28;20385;-57
2022/12/25 01:03:56;;;;;;;567.83;535.15;;;7.10;99.90;;;;;;5033914;28;20401;-59
2022/12/25 01:06:22;;;;;;;569.95;537.38;;;7.10;99.90;;;;;;5030227;28;20417;-59
2022/12/25 01:11:31;;;;;;;544.72;513.55;;;7.00;99.90;;;;;;5031822;28;20845;-59
2022/12/25 01:13:59;;;;;;;555.20;523.08;;;7.00;99.90;;;;;;5030077;28;21402;-59
2022/12/25 01:16:25;;;;;;;554.10;522.60;;;6.90;99.90;;;;;;5030810;28;20422;-59
2022/12/25 01:18:51;;;;;;;548.97;516.77;;;6.90;99.90;;;;;;5032712;28;20493;-59
2022/12/25 01:21:19;;;;;;;547.37;515.67;;;6.90;99.90;;;;;;5033002;28;20442;-60
2022/12/25 01:23:46;;;;;;;562.43;529.97;;;6.90;99.90;;;;;;5032700;28;20398;-59
2022/12/25 01:26:13;;;;;;;569.40;536.58;;;6.80;99.90;;;;;;5031771;28;20398;-60
2022/12/25 01:28:39;;;;;;;555.70;522.70;;;6.80;99.90;;;;;;5032217;28;20379;-59
2022/12/25 01:31:09;;;;;;;546.28;514.97;;;6.80;99.90;;;;;;5031910;28;20407;-53
2022/12/25 01:33:35;;;;;;;554.88;522.28;;;6.70;99.90;;;;;;5032288;28;20398;-54
2022/12/25 01:36:00;;;;;;;545.50;512.97;;;6.70;99.90;;;;;;5031099;28;20399;-56
2022/12/25 01:38:26;;;;;;;517.60;487.40;;;6.60;99.90;;;;;;5031346;28;20403;-55
2022/12/25 01:40:52;;;;;;;506.08;476.00;;;6.50;99.90;;;;;;5032866;28;20387;-58
2022/12/25 01:43:22;;;;;;;513.87;484.00;;;6.50;99.90;;;;;;5032648;28;20421;-58
2022/12/25 01:45:48;;;;;;;489.75;461.48;;;6.50;99.90;;;;;;5030986;28;20407;-57
2022/12/25 01:48:20;;;;;;;491.17;462.47;;;6.40;99.90;;;;;;5030666;28;20418;-58
2022/12/25 01:50:51;;;;;;;492.25;464.00;;;6.40;99.90;;;;;;5028875;28;20418;-58
2022/12/25 01:53:17;;;;;;;486.05;458.35;;;6.40;99.90;;;;;;5027953;28;20395;-58
2022/12/25 01:55:47;;;;;;;489.53;460.57;;;6.30;99.90;;;;;;5027525;28;20392;-58
2022/12/25 01:58:13;;;;;;;456.73;430.17;;;6.30;99.90;;;;;;5027104;28;20683;-60
2022/12/25 02:00:38;;;;;;;436.20;411.45;;;6.20;99.90;;;;;;5027301;28;20829;-60
2022/12/25 02:03:04;;;;;;;447.27;421.63;;;6.20;99.90;;;;;;5028593;28;20379;-60
2022/12/25 02:05:32;;;;;;;471.02;444.00;;;6.20;99.90;;;;;;5026392;28;20409;-58
2022/12/25 02:08:03;;;;;;;466.90;440.35;;;6.20;99.90;;;;;;5030732;28;20516;-57
2022/12/25 02:10:29;;;;;;;457.80;432.02;;;6.20;99.90;;;;;;5029984;28;20385;-59
2022/12/25 02:12:54;;;;;;;450.23;425.05;;;6.20;99.90;;;;;;5028737;28;20390;-58
2022/12/25 02:15:25;;;;;;;430.38;406.10;;;6.10;99.90;;;;;;5047683;28;20396;-58
2022/12/25 02:18:06;;;;;;;443.02;418.23;;;6.10;99.90;;;;;;5030034;28;20451;-58
2022/12/25 02:20:45;;;;;;;456.10;430.83;;;6.10;99.90;;;;;;5029643;28;20389;-58
2022/12/25 02:23:17;;;;;;;440.90;415.73;;;6.10;99.90;;;;;;5030421;28;20390;-58
2022/12/25 02:26:10;;;;;;;436.75;412.15;;;6.10;99.90;;;;;;5031822;28;20814;-58
2022/12/25 02:28:57;;;;;;;449.65;423.90;;;6.00;99.90;;;;;;5030675;28;20629;-58
2022/12/25 02:31:50;;;;;;;457.77;432.10;;;6.10;99.90;;;;;;5048187;28;21044;-58
2022/12/25 02:34:36;;;;;;;465.48;438.92;;;6.10;99.90;;;;;;5017925;28;20385;-58
2022/12/25 02:37:37;;;;;;;468.63;441.63;;;6.10;99.90;;;;;;5029115;28;20733;-57
2022/12/25 02:40:15;;;;;;;473.80;446.87;;;6.10;99.90;;;;;;5015932;28;20397;-59
2022/12/25 03:08:25;;;;;;;552.03;518.88;;;6.10;99.90;;;;;;5051836;28;20443;-55
2022/12/25 03:13:47;;;;;;;544.88;512.30;;;6.00;99.90;;;;;;5054416;28;20436;-60
2022/12/25 03:18:58;;;;;;;558.35;525.72;;;6.10;99.90;;;;;;5053885;28;20381;-60
2022/12/25 03:26:56;;;;;;;563.45;530.63;;;6.30;99.90;;;;;;5054187;28;20385;-60
2022/12/25 03:32:21;;;;;;;578.17;544.08;;;6.20;99.90;;;;;;5054481;28;20400;-60
2022/12/25 03:35:21;;;;;;;580.33;546.33;;;6.20;99.90;;;;;;5036105;28;20417;-62
2022/12/25 03:48:06;;;;;;;532.22;501.08;;;5.80;99.90;;;;;;5053595;28;20392;-58
2022/12/25 04:38:31;;;;;;;516.55;486.55;;;5.50;99.90;;;;;;5054549;28;20373;-57
2022/12/25 04:40:57;;;;;;;527.77;496.67;;;5.50;99.90;;;;;;5053775;28;20393;-59
2022/12/25 04:43:24;;;;;;;516.20;485.80;;;5.50;99.90;;;;;;5034761;28;20397;-60
2022/12/25 04:45:53;;;;;;;525.05;494.48;;;5.50;99.90;;;;;;5052668;28;20628;-59
2022/12/25 04:48:19;;;;;;;530.80;500.25;;;5.50;99.90;;;;;;5034482;28;20443;-59
2022/12/25 04:50:45;;;;;;;527.17;496.73;;;5.50;99.90;;;;;;5051922;28;20743;-59
2022/12/25 04:53:10;;;;;;;527.30;496.52;;;5.50;99.90;;;;;;5033272;28;20421;-59
2022/12/25 04:55:36;;;;;;;544.23;512.10;;;5.50;99.90;;;;;;5033557;28;20469;-59
2022/12/25 04:58:01;;;;;;;542.13;510.37;;;5.60;99.90;;;;;;5033297;28;20689;-58
2022/12/25 05:00:27;;;;;;;527.17;496.58;;;5.50;99.90;;;;;;5033871;28;20377;-59
2022/12/25 05:02:52;;;;;;;540.03;508.23;;;5.50;99.90;;;;;;5049096;28;20488;-59
2022/12/25 05:05:18;;;;;;;530.80;499.67;;;5.50;99.90;;;;;;5032137;28;20429;-59
2022/12/25 05:07:43;;;;;;;532.65;501.13;;;5.50;99.90;;;;;;5050972;28;20417;-59
2022/12/25 05:10:09;;;;;;;531.88;500.75;;;5.50;99.90;;;;;;5032093;28;20378;-59
2022/12/25 05:12:35;;;;;;;522.30;491.67;;;5.50;99.90;;;;;;5049631;28;20459;-59
2022/12/25 05:15:00;;;;;;;523.40;493.03;;;5.50;99.90;;;;;;5034993;28;20729;-59
2022/12/25 05:17:26;;;;;;;513.27;483.30;;;5.40;99.90;;;;;;5032922;28;20385;-58
2022/12/25 05:19:51;;;;;;;515.50;485.00;;;5.50;99.90;;;;;;5049791;28;20389;-59
2022/12/25 05:22:17;;;;;;;525.13;494.58;;;5.50;99.90;;;;;;5030189;28;20813;-61
2022/12/25 05:24:43;;;;;;;516.53;486.33;;;5.50;99.90;;;;;;5030138;28;20393;-59
2022/12/25 05:27:08;;;;;;;510.60;480.17;;;5.40;99.90;;;;;;5030628;28;20678;-59
2022/12/25 05:29:33;;;;;;;532.70;500.92;;;5.50;99.90;;;;;;5030762;28;20473;-58
2022/12/25 05:31:59;;;;;;;527.97;497.00;;;5.50;99.90;;;;;;5049605;28;20409;-59
2022/12/25 05:34:25;;;;;;;520.07;489.33;;;5.50;99.90;;;;;;5032881;28;20468;-59
2022/12/25 05:36:50;;;;;;;504.03;474.20;;;5.50;99.90;;;;;;5033340;28;20797;-59
2022/12/25 05:39:16;;;;;;;522.55;491.38;;;5.50;99.90;;;;;;5032307;28;20381;-59
2022/12/25 05:41:41;;;;;;;510.93;479.93;;;5.50;99.90;;;;;;5048592;28;20424;-59
2022/12/25 05:44:07;;;;;;;522.07;490.63;;;5.50;99.90;;;;;;5031179;28;20395;-58
2022/12/25 05:46:32;;;;;;;520.22;489.00;;;5.60;99.90;;;;;;5049555;28;20401;-59
2022/12/25 05:48:58;;;;;;;508.95;478.33;;;5.60;99.90;;;;;;5049541;28;20377;-59
2022/12/25 05:51:24;;;;;;;529.47;497.63;;;5.60;99.90;;;;;;5048127;28;20740;-57
2022/12/25 05:53:50;;;;;;;516.50;485.52;;;5.60;99.90;;;;;;5031304;28;20385;-59
2022/12/25 05:56:15;;;;;;;534.33;501.80;;;5.70;99.90;;;;;;5030110;28;20382;-58
2022/12/25 05:58:41;;;;;;;513.13;481.85;;;5.60;99.90;;;;;;5028447;28;20454;-58
2022/12/25 06:01:12;;;;;;;513.80;483.27;;;5.70;99.90;;;;;;5028213;28;20837;-56
2022/12/25 06:03:38;;;;;;;519.65;488.60;;;5.70;99.90;;;;;;5044638;28;20462;-59
2022/12/25 06:06:04;;;;;;;501.45;471.65;;;5.80;99.90;;;;;;5026470;28;20393;-59
2022/12/25 06:08:29;;;;;;;527.53;496.03;;;5.80;99.90;;;;;;5022609;28;20626;-57
2022/12/25 06:10:55;;;;;;;526.13;494.90;;;5.80;99.90;;;;;;5022382;28;20418;-59
2022/12/25 06:13:20;;;;;;;536.83;504.17;;;5.90;99.90;;;;;;5023359;28;20402;-59
2022/12/25 06:15:46;;;;;;;519.20;487.98;;;5.80;99.90;;;;;;5024281;28;20891;-57
2022/12/25 06:18:11;;;;;;;536.63;504.80;;;5.80;99.90;;;;;;5024462;28;20387;-57
2022/12/25 06:20:39;;;;;;;545.17;513.10;;;5.90;99.90;;;;;;5027562;28;20790;-58
2022/12/25 06:23:05;;;;;;;539.87;508.27;;;5.80;99.90;;;;;;5030117;28;20500;-59
2022/12/25 06:25:30;;;;;;;537.87;505.53;;;5.80;99.90;;;;;;5031427;28;20391;-59
2022/12/25 06:27:56;;;;;;;538.17;505.98;;;5.80;99.90;;;;;;5031569;28;20734;-59
2022/12/25 06:30:22;;;;;;;541.45;509.08;;;5.80;99.90;;;;;;5031742;28;20460;-59
2022/12/25 06:32:47;;;;;;;550.75;517.70;;;5.80;99.90;;;;;;5032088;28;20822;-57
2022/12/25 06:35:13;;;;;;;534.13;502.30;;;5.80;99.90;;;;;;5032173;28;20387;-59
2022/12/25 06:37:38;;;;;;;538.50;507.07;;;5.80;99.90;;;;;;5031876;28;20586;-59
2022/12/25 06:40:04;;;;;;;537.33;505.38;;;5.80;99.90;;;;;;5030459;28;20405;-59
2022/12/25 06:42:30;;;;;;;544.20;510.92;;;5.90;99.90;;;;;;5032130;28;20474;-60
2022/12/25 06:44:55;;;;;;;537.43;505.30;;;5.80;99.90;;;;;;5032314;28;20613;-59
2022/12/25 06:47:21;;;;;;;538.50;506.33;;;5.90;99.90;;;;;;5032445;28;20390;-61
2022/12/25 06:49:46;;;;;;;528.73;497.07;;;5.90;99.90;;;;;;5034265;28;20390;-59
2022/12/25 06:52:12;;;;;;;537.43;505.20;;;5.90;99.90;;;;;;5034546;28;20511;-59
2022/12/25 06:54:38;;;;;;;534.78;502.42;;;5.90;99.90;;;;;;5033537;28;20497;-58
2022/12/25 06:57:03;;;;;;;528.47;497.63;;;5.90;99.90;;;;;;5034576;28;20793;-59
2022/12/25 06:59:28;;;;;;;542.70;510.57;;;5.80;99.90;;;;;;5033230;28;20390;-59
2022/12/25 07:01:56;;;;;;;532.30;501.08;;;5.90;99.90;;;;;;5031874;28;20502;-59
2022/12/25 07:04:30;;;;;;;537.80;506.05;;;5.90;99.90;;;;;;5031927;28;20387;-61
2022/12/25 07:06:56;;;;;;;549.85;516.58;;;6.00;99.90;;;;;;5038330;28;20759;-59
2022/12/25 07:09:22;;;;;;;532.87;501.60;;;6.00;99.90;;;;;;5052224;28;20770;-58
2022/12/25 07:11:47;;;;;;;545.30;512.60;;;6.00;99.90;;;;;;5032895;28;20440;-59
2022/12/25 07:14:19;;;;;;;549.10;515.92;;;5.90;99.90;;;;;;5032961;28;20689;-56
2022/12/25 07:16:45;;;;;;;528.25;497.10;;;5.90;99.90;;;;;;5032545;28;20472;-60
2022/12/25 07:19:10;;;;;;;530.43;499.30;;;5.90;99.90;;;;;;5033342;28;20439;-59
2022/12/25 07:21:36;;;;;;;539.77;507.43;;;5.90;99.90;;;;;;5052733;28;20488;-59
2022/12/25 07:24:01;;;;;;;528.33;496.45;;;5.90;99.90;;;;;;5034384;28;20397;-59
2022/12/25 07:26:27;;;;;;;524.50;492.70;;;6.00;99.90;;;;;;5051030;28;20472;-59
2022/12/25 07:28:54;;;;;;;530.47;498.93;;;6.00;99.90;;;;;;5033967;28;20417;-58
2022/12/25 07:31:20;;;;;;;548.72;515.85;;;6.00;99.90;;;;;;5033635;28;21121;-61
2022/12/25 07:33:45;;;;;;;530.30;498.83;;;5.90;99.90;;;;;;5049236;28;20428;-59
2022/12/25 07:36:11;;;;;;;511.63;481.53;;;6.00;99.90;;;;;;5033045;28;20397;-59
2022/12/25 07:38:37;;;;;;;519.33;489.00;;;5.90;99.90;;;;;;5051933;28;20393;-58
2022/12/25 07:41:06;;;;;;;528.37;497.63;;;6.00;99.90;;;;;;5033223;28;20571;-59
2022/12/25 07:43:31;;;;;;;508.98;479.38;;;5.90;99.90;;;;;;5034312;28;20657;-58
2022/12/25 07:45:58;;;;;;;509.60;479.40;;;6.00;99.90;;;;;;5032388;28;20856;-60
2022/12/25 07:48:26;;;;;;;490.13;461.73;;;6.00;99.90;;;;;;5033159;28;20437;-59
2022/12/25 07:50:59;;;;;;;468.35;441.83;;;6.00;99.90;;;;;;5033883;28;20982;-56
2022/12/25 07:53:25;;;;;;;492.25;464.02;;;6.00;99.90;;;;;;5032512;28;20463;-59
2022/12/25 07:56:03;;;;;;;475.23;447.98;;;6.00;99.90;;;;;;5032797;28;20389;-59
2022/12/25 07:58:29;;;;;;;483.73;455.95;;;6.00;99.90;;;;;;5048629;28;20397;-57
2022/12/25 08:01:00;;;;;;;511.45;481.73;;;6.10;99.90;;;;;;5031435;28;20466;-59
2022/12/25 08:03:26;;;;;;;498.70;469.63;;;6.10;99.90;;;;;;5031575;28;20386;-61
2022/12/25 08:05:51;;;;;;;482.83;455.47;;;6.10;99.90;;;;;;5047825;28;20412;-60
2022/12/25 08:08:17;;;;;;;466.08;439.73;;;6.00;99.90;;;;;;5029380;28;20433;-59
2022/12/25 08:10:46;;;;;;;484.97;456.83;;;6.00;99.90;;;;;;5029893;28;20727;-58
2022/12/25 08:13:12;;;;;;;460.45;434.13;;;6.00;99.90;;;;;;5030661;28;20395;-59
2022/12/25 08:15:39;;;;;;;454.80;429.63;;;6.00;99.90;;;;;;5030397;28;20402;-59
2022/12/25 08:18:04;;;;;;;448.00;422.75;;;6.00;99.90;;;;;;5031014;28;20396;-59
2022/12/25 08:20:30;;;;;;;458.10;432.70;;;6.10;99.90;;;;;;5047758;28;20397;-56
2022/12/25 08:22:55;;;;;;;442.90;418.57;;;6.10;99.90;;;;;;5030073;28;20450;-59
2022/12/25 08:25:21;;;;;;;478.07;451.20;;;6.20;99.90;;;;;;5045402;28;20695;-57
2022/12/25 08:27:46;;;;;;;468.63;442.57;;;6.10;99.90;;;;;;5027965;28;20542;-58
2022/12/25 08:30:12;;;;;;;472.35;445.88;;;6.20;99.90;;;;;;5026924;28;20675;-58
2022/12/25 08:32:38;;;;;;;459.13;433.87;;;6.20;99.90;;;;;;5045008;28;20798;-57
2022/12/25 08:35:03;;;;;;;467.50;441.83;;;6.20;99.90;;;;;;5028417;28;20658;-56
2022/12/25 08:37:29;;;;;;;449.90;425.17;;;6.20;99.90;;;;;;5045468;28;20456;-58
2022/12/25 08:39:54;;;;;;;471.70;445.23;;;6.30;99.90;;;;;;5029787;28;20389;-60
2022/12/25 08:42:20;;;;;;;467.90;442.33;;;6.30;99.90;;;;;;5049577;28;20796;-59
2022/12/25 08:44:45;;;;;;;479.80;452.90;;;6.40;99.90;;;;;;5030675;28;20432;-57
2022/12/25 08:47:11;;;;;;;481.40;454.60;;;6.40;99.90;;;;;;5028852;28;20607;-59
2022/12/25 08:49:36;;;;;;;479.33;452.15;;;6.30;99.90;;;;;;5029076;28;20408;-59
2022/12/25 08:52:02;;;;;;;465.70;440.03;;;6.30;99.90;;;;;;5044849;28;20553;-60
2022/12/25 08:54:30;;;;;;;472.90;447.03;;;6.30;99.90;;;;;;5026170;28;20488;-58
2022/12/25 08:56:56;;;;;;;460.95;435.02;;;6.40;99.90;;;;;;5045075;28;20363;-59
2022/12/25 08:59:21;;;;;;;469.53;443.50;;;6.40;99.90;;;;;;5026436;28;20742;-56
2022/12/25 09:01:47;;;;;;;466.00;440.23;;;6.40;99.90;;;;;;5025645;28;20495;-57
2022/12/25 09:04:13;;;;;;;464.63;438.90;;;6.40;99.90;;;;;;5045283;28;20638;-60
2022/12/25 09:06:38;;;;;;;460.88;435.92;;;6.40;99.90;;;;;;5025898;28;20417;-60
2022/12/25 09:09:04;;;;;;;467.07;441.43;;;6.40;99.90;;;;;;5023783;28;20437;-60
2022/12/25 09:11:30;;;;;;;488.27;461.43;;;6.50;99.90;;;;;;5024876;28;20694;-58
2022/12/25 09:13:55;;;;;;;484.37;458.40;;;6.50;99.90;;;;;;5023805;28;20406;-57
2022/12/25 09:16:21;;;;;;;473.42;447.67;;;6.50;99.90;;;;;;5041038;28;20522;-56
2022/12/25 09:18:48;;;;;;;471.80;446.38;;;6.60;99.90;;;;;;5022530;28;20657;-59
2022/12/25 09:21:14;;;;;;;476.70;450.50;;;6.60;99.90;;;;;;5018697;28;20437;-59
2022/12/25 09:23:40;;;;;;;485.25;458.63;;;6.60;99.90;;;;;;5037268;28;20558;-57
2022/12/25 09:26:08;;;;;;;508.15;479.42;;;6.60;99.90;;;;;;5003000;28;20442;-55
2022/12/25 09:28:34;;;;;;;486.27;459.00;;;6.60;99.90;;;;;;5016652;28;20607;-55
2022/12/25 09:31:00;;;;;;;491.17;464.17;;;6.60;99.90;;;;;;5017053;28;20459;-59
2022/12/25 09:33:26;;;;;;;494.10;466.90;;;6.60;99.90;;;;;;5019203;28;20381;-58
2022/12/25 09:36:03;;;;;;;489.33;462.38;;;6.60;99.90;;;;;;5036427;28;20456;-58
2022/12/25 09:38:30;;;;;;;490.70;463.50;;;6.70;99.90;;;;;;5021498;28;20396;-58
2022/12/25 09:41:06;;;;;;;482.60;456.02;;;6.60;99.90;;;;;;5019951;28;20865;-59
2022/12/25 09:43:38;;;;;;;483.45;456.98;;;6.60;99.90;;;;;;5020839;28;20428;-59
2022/12/25 09:46:06;;;;;;;469.23;443.67;;;6.60;99.90;;;;;;5023034;28;20386;-59
2022/12/25 09:48:33;;;;;;;496.08;468.95;;;6.70;99.90;;;;;;5023555;28;20389;-58
2022/12/25 09:51:07;;;;;;;494.55;468.05;;;6.70;99.90;;;;;;5024757;28;20800;-56
2022/12/25 09:53:38;;;;;;;492.63;466.05;;;6.70;99.90;;;;;;5026207;28;20396;-59
2022/12/25 09:56:26;;;;;;;481.27;455.38;;;6.70;99.90;;;;;;5027291;28;20443;-56
2022/12/25 09:58:52;;;;;;;490.63;463.85;;;6.80;99.90;;;;;;5027864;28;20476;-58
2022/12/25 10:01:30;;;;;;;485.93;459.33;;;6.80;99.90;;;;;;5044474;28;20752;-59
2022/12/25 10:04:29;;;;;;;500.50;473.33;;;6.80;99.90;;;;;;5026433;28;20385;-60
2022/12/25 10:07:31;;;;;;;470.52;445.30;;;6.70;99.90;;;;;;5024915;28;20526;-60
2022/12/25 10:10:22;;;;;;;461.55;436.52;;;6.70;99.90;;;;;;5024594;28;20386;-60
2022/12/25 10:12:55;;;;;;;446.10;422.00;;;6.80;99.90;;;;;;5027302;28;20397;-60
2022/12/25 10:15:35;;;;;;;467.58;442.27;;;6.80;99.90;;;;;;5043467;28;20405;-60
2022/12/25 10:18:28;;;;;;;481.88;455.52;;;6.90;99.90;;;;;;5025894;28;20647;-60
2022/12/25 10:20:56;;;;;;;470.27;444.90;;;6.90;99.90;;;;;;5026114;28;20398;-60
2022/12/25 10:23:30;;;;;;;470.85;445.95;;;7.00;99.90;;;;;;5023826;28;20392;-57
2022/12/25 10:25:56;;;;;;;455.83;431.52;;;6.90;99.90;;;;;;5022494;28;20715;-59
2022/12/25 10:28:27;;;;;;;435.50;412.43;;;7.00;99.90;;;;;;5024969;28;20393;-61
2022/12/25 10:30:55;;;;;;;452.45;428.23;;;7.00;99.90;;;;;;5024283;28;20798;-61
2022/12/25 10:33:21;;;;;;;443.08;418.92;;;7.00;99.90;;;;;;5025154;28;20396;-61
2022/12/25 10:35:47;;;;;;;458.90;434.80;;;7.00;99.90;;;;;;5024499;28;20389;-61
2022/12/25 10:38:16;;;;;;;449.73;425.83;;;7.00;99.90;;;;;;5026962;28;20481;-61
2022/12/25 10:40:56;;;;;;;443.08;419.80;;;7.00;99.90;;;;;;5028231;28;20464;-61
2022/12/25 10:43:44;;;;;;;446.75;422.88;;;7.10;99.90;;;;;;5024726;28;20650;-61
2022/12/25 10:46:12;;;;;;;450.90;426.25;;;7.10;99.90;;;;;;5024632;28;20416;-59
2022/12/25 10:48:52;;;;;;;439.25;415.95;;;7.10;99.90;;;;;;5026608;28;20692;-59
2022/12/25 10:51:32;;;;;;;453.38;428.70;;;7.10;99.90;;;;;;5030232;28;20436;-55
2022/12/25 10:54:00;;;;;;;437.35;414.15;;;7.10;99.90;;;;;;5047318;28;20377;-60
2022/12/25 10:56:26;;;;;;;430.77;408.33;;;7.10;99.90;;;;;;5047965;28;20408;-59
2022/12/25 10:59:04;;;;;;;431.58;409.17;;;7.10;99.90;;;;;;5030297;28;20386;-58
2022/12/25 11:01:29;;;;;;;433.00;410.20;;;7.10;99.90;;;;;;5031395;28;20646;-58
2022/12/25 11:03:55;;;;;;;423.17;400.97;;;7.10;99.90;;;;;;5030964;28;20745;-59
2022/12/25 11:06:27;;;;;;;426.38;403.92;;;7.20;99.90;;;;;;5028549;28;20585;-59
2022/12/25 11:08:55;;;;;;;420.50;398.35;;;7.20;99.90;;;;;;5044100;28;20396;-59
2022/12/25 11:11:21;;;;;;;429.15;406.45;;;7.30;99.90;;;;;;5033511;28;20398;-59
2022/12/25 11:13:51;;;;;;;439.08;416.25;;;7.30;99.90;;;;;;5035221;28;20396;-59
2022/12/25 11:16:37;;;;;;;446.55;422.85;;;7.40;99.90;;;;;;5033660;28;20417;-60
2022/12/25 11:19:30;;;;;;;445.05;421.88;;;7.40;99.90;;;;;;5050233;28;20389;-53
2022/12/25 11:21:58;;;;;;;438.33;415.50;;;7.40;99.90;;;;;;5034113;28;20505;-56
2022/12/25 11:24:29;;;;;;;435.08;412.33;;;7.40;99.90;;;;;;5051210;28;20707;-59
2022/12/25 11:26:58;;;;;;;438.30;415.73;;;7.50;99.90;;;;;;5030177;28;20558;-58
2022/12/25 11:29:40;;;;;;;440.80;417.88;;;7.50;99.90;;;;;;5046290;28;20389;-59
2022/12/25 11:32:32;;;;;;;460.10;435.77;;;7.50;99.90;;;;;;5045989;28;20409;-59
2022/12/25 11:34:59;;;;;;;422.42;400.17;;;7.50;99.90;;;;;;5046381;28;20397;-58
2022/12/25 11:37:38;;;;;;;450.13;426.77;;;7.50;99.90;;;;;;5030230;28;20462;-59
2022/12/25 11:40:05;;;;;;;428.48;405.80;;;7.50;99.90;;;;;;5031557;28;20389;-60
2022/12/25 11:42:38;;;;;;;430.63;408.42;;;7.50;99.90;;;;;;5031834;28;20488;-59
2022/12/25 11:45:13;;;;;;;429.77;407.45;;;7.40;99.90;;;;;;5033389;28;20397;-60
2022/12/25 11:48:10;;;;;;;425.33;403.33;;;7.50;99.90;;;;;;5031991;28;20393;-59
2022/12/25 11:50:42;;;;;;;419.33;397.55;;;7.50;99.90;;;;;;5047958;28;20487;-60
2022/12/25 11:53:24;;;;;;;429.77;407.10;;;7.50;99.90;;;;;;5030930;28;20405;-61
2022/12/25 11:55:53;;;;;;;419.55;397.83;;;7.50;99.90;;;;;;5049086;28;20741;-59
2022/12/25 11:58:40;;;;;;;430.05;407.88;;;7.50;99.90;;;;;;5030148;28;20465;-59
2022/12/25 12:01:17;;;;;;;438.73;415.50;;;7.50;99.90;;;;;;5047332;28;20381;-59
2022/12/25 12:03:43;;;;;;;404.05;382.85;;;7.50;99.90;;;;;;5030227;28;20497;-61
2022/12/25 12:06:27;;;;;;;417.53;395.77;;;7.50;99.90;;;;;;5030775;28;20536;-59
2022/12/25 12:08:59;;;;;;;407.30;386.25;;;7.50;99.90;;;;;;5031491;28;20428;-59
2022/12/25 12:11:36;;;;;;;402.35;381.48;;;7.50;99.90;;;;;;5028931;28;20697;-59
2022/12/25 12:14:30;;;;;;;405.02;383.73;;;7.50;99.90;;;;;;5028745;28;20381;-59
2022/12/25 12:16:55;;;;;;;394.00;373.45;;;7.50;99.90;;;;;;5026038;28;20377;-59
2022/12/25 12:19:33;;;;;;;389.47;368.97;;;7.50;99.90;;;;;;5037847;28;20903;-59
2022/12/25 12:22:01;;;;;;;382.47;362.90;;;7.50;99.90;;;;;;5037442;28;20449;-59
2022/12/25 12:24:39;;;;;;;394.52;373.70;;;7.50;99.90;;;;;;5021274;28;20426;-59
2022/12/25 12:27:13;;;;;;;394.13;374.38;;;7.50;99.90;;;;;;5017899;28;20397;-59
2022/12/25 12:29:43;;;;;;;385.38;365.55;;;7.50;99.90;;;;;;5017579;28;20401;-59
2022/12/25 12:32:32;;;;;;;379.88;360.33;;;7.60;99.90;;;;;;5035203;28;20547;-59
2022/12/25 12:34:59;;;;;;;404.10;383.03;;;7.60;99.90;;;;;;5021943;28;20443;-58
2022/12/25 12:37:35;;;;;;;384.17;364.30;;;7.60;99.90;;;;;;5023515;28;20450;-59
2022/12/25 12:40:02;;;;;;;402.17;381.07;;;7.60;99.90;;;;;;5022236;28;20927;-59
2022/12/25 12:42:37;;;;;;;415.33;393.67;;;7.60;99.90;;;;;;5040605;28;20904;-58
2022/12/25 12:45:13;;;;;;;405.80;384.98;;;7.60;99.90;;;;;;5021828;28;20445;-59
2022/12/25 12:47:51;;;;;;;417.67;395.88;;;7.60;99.90;;;;;;5021547;28;20389;-59
2022/12/25 12:50:36;;;;;;;396.33;375.48;;;7.60;99.90;;;;;;5021609;28;20393;-57
2022/12/25 12:53:27;;;;;;;395.03;374.17;;;7.60;99.90;;;;;;5020380;28;20409;-58
2022/12/25 12:55:53;;;;;;;383.38;363.30;;;7.60;99.90;;;;;;5035887;28;20781;-60
2022/12/25 12:58:36;;;;;;;397.83;377.25;;;7.60;99.90;;;;;;5037272;28;20381;-58
2022/12/25 13:01:12;;;;;;;391.98;371.85;;;7.60;99.90;;;;;;5019680;28;20665;-58
2022/12/25 13:04:07;;;;;;;404.15;383.35;;;7.70;99.90;;;;;;5022278;28;20683;-60
2022/12/25 13:06:42;;;;;;;362.23;343.33;;;7.70;99.90;;;;;;5040519;28;21079;-59
2022/12/25 13:09:40;;;;;;;349.30;331.67;;;7.80;99.90;;;;;;5023020;28;20996;-58
2022/12/25 13:12:07;;;;;;;373.52;354.55;;;7.90;99.90;;;;;;5024736;28;20408;-59
2022/12/25 13:14:34;;;;;;;389.02;369.05;;;8.00;99.90;;;;;;5024483;28;20405;-57
2022/12/25 13:17:00;;;;;;;391.77;371.35;;;8.00;99.90;;;;;;5041926;28;20421;-59
2022/12/25 13:19:27;;;;;;;380.92;361.10;;;7.90;99.90;;;;;;5043636;28;20417;-59
2022/12/25 13:22:02;;;;;;;392.38;372.25;;;8.00;99.90;;;;;;5042308;28;20901;-60
2022/12/25 13:24:34;;;;;;;406.95;386.20;;;8.00;99.90;;;;;;5025523;28;20389;-58
2022/12/25 13:27:01;;;;;;;410.88;389.17;;;8.00;99.90;;;;;;5023985;28;20439;-56
2022/12/25 13:29:35;;;;;;;414.20;392.73;;;8.00;99.90;;;;;;5026766;28;20466;-59
2022/12/25 13:32:05;;;;;;;421.55;399.55;;;8.00;99.90;;;;;;5013391;28;20408;-60
2022/12/25 13:34:32;;;;;;;408.17;387.38;;;8.00;99.90;;;;;;5025161;28;20373;-58
2022/12/25 13:37:15;;;;;;;394.67;373.95;;;8.00;99.90;;;;;;5009962;28;21026;-59
2022/12/25 13:40:18;;;;;;;419.20;397.55;;;8.00;99.90;;;;;;5026931;28;20389;-60
2022/12/25 13:42:46;;;;;;;410.97;390.10;;;8.00;99.90;;;;;;5025155;28;20427;-60
2022/12/25 13:45:11;;;;;;;410.50;389.48;;;8.00;99.90;;;;;;5028110;28;20393;-59
2022/12/25 13:47:42;;;;;;;410.50;388.53;;;8.10;99.90;;;;;;5027199;28;21184;-60
2022/12/25 13:50:26;;;;;;;432.90;410.52;;;8.10;99.90;;;;;;5025362;28;20834;-59
2022/12/25 13:52:53;;;;;;;442.67;419.70;;;8.10;99.90;;;;;;5028424;28;20448;-60
2022/12/25 13:55:29;;;;;;;430.33;407.92;;;8.10;99.90;;;;;;5045128;28;20385;-59
2022/12/25 13:58:00;;;;;;;455.20;431.23;;;8.10;99.90;;;;;;5045403;28;20449;-61
2022/12/25 14:00:43;;;;;;;453.75;430.08;;;8.20;99.90;;;;;;5043823;28;20384;-60
2022/12/25 14:03:19;;;;;;;442.38;419.38;;;8.10;99.90;;;;;;5025071;28;20385;-60
2022/12/25 14:05:44;;;;;;;448.20;425.05;;;8.10;99.90;;;;;;5019208;28;20596;-58
2022/12/25 14:08:17;;;;;;;449.30;425.58;;;8.10;99.90;;;;;;5011130;28;20461;-60
2022/12/25 14:10:47;;;;;;;446.20;423.20;;;8.10;99.90;;;;;;5012257;28;20606;-60
2022/12/25 14:13:14;;;;;;;443.50;420.23;;;8.10;99.90;;;;;;5011673;28;20395;-60
2022/12/25 14:15:40;;;;;;;446.75;423.33;;;8.10;99.90;;;;;;5013826;28;20380;-60